Kilgore, Kentucky
Current Conditions -  °F | °C
As of 1:38 AM on Wednesday 28 Jan 2015 (Local Time) from KHTS Reporting Station
Scattered Clouds Scattered Clouds  
Wind Chill: 11°   Ceiling: Unl
Heat Index: 19°   Visibility: 10mi
Dew Point: 13°   Wind: 6mph
Humidity: 77%   Direction: 330°NNW
Pressure: 30.23"   Gusts: NA
Location:  38.2878°N, 82.7547°W
Report Text: KHTS 280638Z 33005KT 10SM SCT026 M07/M11 A3023 RMK AO2 T10721106 $
Loading
Personal Weather Stations






























Interactive Weather Map New forecast layout! Learn more

10-Day Weather Forecast

Advertisements
Track Severe Weather on mobile